CheckWX is a tool to help pilots better visualize weather data.  It is not intended as a substitute for an official pre-flight weather briefing.

18:03:55 UTC

EGPD METAR
Aberdeen Dyce Airport
Aberdeen, United Kingdom
Current

14 mins ago

EGPD 241750Z AUTO 07008KT 050V110 5000 HZ OVC006 09/07 Q0997 TEMPO 4000 BR BKN004
Observed
Apr-24 @ 17:50 UTC
Wind
  • 070° at 8 KTS
Visibility
5,005 meters
Flight Rules
IFR
Conditions
Haze
Cloud Levels
  • Overcast at 600' AGL
Temperature
C / 48°F
Dewpoint
C / 45°F
Humidity
87%
Altimeter
29.44" Hg
Pressure
996.92 hPa
Previous

44 mins ago

EGPD 241720Z AUTO 08007KT 030V100 5000 HZ OVC007 09/07 Q0997 TEMPO 3000 BR BKN004
Observed
Apr-24 @ 17:20 UTC
Wind
  • 080° at 7 KTS
Visibility
5,005 meters
Flight Rules
IFR
Conditions
Haze
Cloud Levels
  • Overcast at 700' AGL
Temperature
C / 48°F
Dewpoint
C / 45°F
Humidity
87%
Altimeter
29.44" Hg
Pressure
996.92 hPa
Previous

1 hour ago

EGPD 241650Z AUTO 08009KT 5000 HZ OVC007 09/07 Q0998
Observed
Apr-24 @ 16:50 UTC
Wind
  • 080° at 9 KTS
Visibility
5,005 meters
Flight Rules
IFR
Conditions
Haze
Cloud Levels
  • Overcast at 700' AGL
Temperature
C / 48°F
Dewpoint
C / 45°F
Humidity
87%
Altimeter
29.47" Hg
Pressure
997.92 hPa